Etusivu
METAR-TAF:

METAR-TAF

Lentoasemat :

Cochabamba, Bolivia

Leveyspiiri: 17-25S, Pituuspiiri: 066-11W, korkeus merenpinnasta: 2548 m

Tämänhetkinen sää

Tämä raportti tehtiin 1 tunti ja 15 minuuttia sitten, kello 01.00 UTC
Tuuli 4 kn idästä/kaakosta, vaihdellen idän/koillisen ja etelän välillä
Lämpötila 20°C
Kosteus 40%
Ilmanpaine 1024 hPa
Näkyvyys 10 km tai enemmän
Muutamia pilviä 3000 ft:n korkeudessa
Hajanaisia pilviä 20000 ft:n korkeudessa

METAR: SLCB 240100Z 12004KT 070V170 9999 FEW030 SCT200 20/06 Q1024

Aika: 22:15 (02:15 UTC)

Sääennuste

Tämä raportti tehtiin 4 tuntia ja 15 minuuttia sitten, kello 22.00 UTC
Ennuste voimassa 24. päivästä klo 00 UTC - 24. päivään klo 24 UTC
Tuuli kn pohjoisesta
Näkyvyys 10 km tai enemmän
Muutamia pilviä 3000 ft:n korkeudessa

TAF: SLCB 232200Z 2400/2424 00000KT 9999 FEW030 TX31/2419Z TN12/2410Z

Säähavainnot ja -ennusteet yli 4000 lentoasemalta (METAR- ja TAF-raportit).

Käytössä olevat sääasemat on merkitty karttaan keltaisilla ja punaisilla pisteillä.

Aseta hiiri pisteen päälle nähdäksesi sääaseman nimen.

Klikkaa sitten nähdäksesi säähavainnot ja -ennusteet.

Kartan vaihtaminen: klikkaa mustalla rastilla varustettuja vihreitä pisteitä, niin voit zoomata sisään; viivalla varustettua vihreää pistettä, niin voit zoomata ulos tai vihreitä nuolia, niin pääset viereisille kartoille.


METAR-TAF: